createdAt,value
2023-05-20T00:01:55.702Z,7.25
2023-05-20T00:04:22.744Z,6.97
2023-05-20T00:06:49.654Z,7.07
2023-05-20T00:09:17.337Z,8.52
2023-05-20T00:11:44.355Z,7.75
2023-05-20T00:14:11.202Z,8.35
2023-05-20T00:16:38.213Z,7.10
2023-05-20T00:19:05.113Z,6.35
2023-05-20T00:21:32.036Z,7.93
2023-05-20T00:23:58.945Z,7.07
2023-05-20T00:26:26.617Z,6.82
2023-05-20T00:28:53.376Z,7.53
2023-05-20T00:31:20.166Z,7.82
2023-05-20T00:33:47.024Z,8.13
2023-05-20T00:36:13.779Z,7.35
2023-05-20T00:38:40.636Z,6.97
2023-05-20T00:41:07.480Z,7.43
2023-05-20T00:43:34.252Z,7.88
2023-05-20T00:46:01.876Z,7.05
2023-05-20T00:48:40.099Z,8.13
2023-05-20T00:51:07.753Z,8.35
2023-05-20T00:53:36.550Z,8.20
2023-05-20T00:56:04.544Z,10.88
2023-05-20T00:58:32.088Z,8.82
2023-05-20T01:00:58.976Z,10.75
2023-05-20T01:03:26.209Z,7.72
2023-05-20T01:05:53.108Z,8.20
2023-05-20T01:08:20.509Z,9.27
2023-05-20T01:10:53.254Z,8.38
2023-05-20T01:13:24.569Z,9.80
2023-05-20T01:15:55.913Z,8.77
2023-05-20T01:18:25.566Z,8.45
2023-05-20T01:20:54.712Z,9.50
2023-05-20T01:23:21.935Z,8.10
2023-05-20T01:25:48.652Z,7.53
2023-05-20T01:28:17.951Z,8.05
2023-05-20T01:30:51.653Z,8.95
2023-05-20T01:33:21.920Z,10.10
2023-05-20T01:35:48.889Z,9.30
2023-05-20T01:38:16.957Z,9.88
2023-05-20T01:40:44.162Z,9.27
2023-05-20T01:43:11.744Z,9.45
2023-05-20T01:45:41.276Z,9.13
2023-05-20T01:48:11.669Z,8.90
2023-05-20T01:53:08.241Z,7.57
2023-05-20T01:55:35.627Z,9.30
2023-05-20T01:58:02.969Z,11.00
2023-05-20T02:00:29.831Z,9.07
2023-05-20T02:02:56.718Z,9.80
2023-05-20T02:05:23.514Z,10.18
2023-05-20T02:07:50.289Z,8.63
2023-05-20T02:10:17.085Z,9.20
2023-05-20T02:12:43.886Z,12.52
2023-05-20T02:15:10.733Z,10.20
2023-05-20T02:17:37.553Z,9.63
2023-05-20T02:20:06.609Z,11.35
2023-05-20T02:22:33.645Z,11.93
2023-05-20T02:25:00.449Z,10.57
2023-05-20T02:27:27.210Z,10.02
2023-05-20T02:29:54.073Z,12.20
2023-05-20T02:32:21.473Z,10.25
2023-05-20T02:34:48.241Z,11.02
2023-05-20T02:37:14.994Z,10.70
2023-05-20T02:39:41.880Z,10.98
2023-05-20T02:42:08.615Z,11.95
2023-05-20T02:44:35.732Z,11.45
2023-05-20T02:47:02.499Z,15.98
2023-05-20T02:49:29.270Z,10.50
2023-05-20T02:51:56.454Z,11.05
2023-05-20T02:54:23.364Z,14.00
2023-05-20T02:56:50.079Z,12.00
2023-05-20T02:59:16.909Z,14.10
2023-05-20T03:01:43.719Z,13.52
2023-05-20T03:04:10.558Z,13.95
2023-05-20T03:06:38.186Z,12.80
2023-05-20T03:09:05.897Z,14.77
2023-05-20T03:11:32.627Z,16.45
2023-05-20T03:13:59.722Z,14.23
2023-05-20T03:16:28.174Z,15.18
2023-05-20T03:18:55.157Z,16.00
2023-05-20T03:21:24.054Z,16.48
2023-05-20T03:23:51.044Z,15.93
2023-05-20T03:26:17.931Z,17.02
2023-05-20T03:28:44.680Z,17.73
2023-05-20T03:31:11.501Z,18.77
2023-05-20T03:33:38.331Z,18.42
2023-05-20T03:36:06.612Z,16.13
2023-05-20T03:38:33.385Z,21.00
2023-05-20T03:41:00.145Z,18.90
2023-05-20T03:43:27.889Z,17.58
2023-05-20T03:45:54.626Z,18.92
2023-05-20T03:48:21.392Z,19.35
2023-05-20T03:50:48.170Z,20.63
2023-05-20T03:53:14.987Z,17.98
2023-05-20T03:55:42.456Z,21.85
2023-05-20T03:58:09.217Z,22.73
2023-05-20T04:00:36.300Z,20.90
2023-05-20T04:03:03.335Z,21.42
2023-05-20T04:05:30.190Z,22.13
2023-05-20T04:07:57.583Z,25.23
2023-05-20T04:10:24.367Z,25.50
2023-05-20T04:12:51.124Z,26.27
2023-05-20T04:15:18.049Z,27.52
2023-05-20T04:17:48.456Z,26.70
2023-05-20T04:20:15.451Z,25.42
2023-05-20T04:22:42.398Z,26.10
2023-05-20T04:25:09.863Z,28.80
2023-05-20T04:27:39.718Z,30.58
2023-05-20T04:30:07.861Z,28.02
2023-05-20T04:32:34.745Z,30.08
2023-05-20T04:35:08.423Z,35.55
2023-05-20T04:37:37.457Z,31.55
2023-05-20T04:40:06.680Z,31.83
2023-05-20T04:42:37.831Z,30.35
2023-05-20T04:45:05.831Z,28.25
2023-05-20T04:47:39.200Z,34.05
2023-05-20T04:50:11.400Z,32.97
2023-05-20T04:52:42.928Z,30.45
2023-05-20T04:55:10.700Z,29.88
2023-05-20T04:57:44.261Z,29.30
2023-05-20T05:00:12.622Z,29.92
2023-05-20T05:02:39.731Z,30.02
2023-05-20T05:05:07.211Z,25.90
2023-05-20T05:07:34.073Z,30.30
2023-05-20T05:10:01.272Z,26.67
2023-05-20T05:12:28.136Z,29.00
2023-05-20T05:14:54.951Z,33.80
2023-05-20T05:17:21.760Z,24.90
2023-05-20T05:19:48.542Z,23.38
2023-05-20T05:22:15.338Z,29.20
2023-05-20T05:24:42.127Z,28.00
2023-05-20T05:27:08.884Z,26.67
2023-05-20T05:29:35.734Z,29.48
2023-05-20T05:32:02.610Z,27.17
2023-05-20T05:34:29.517Z,27.83
2023-05-20T05:36:56.273Z,25.90
2023-05-20T05:39:23.009Z,25.35
2023-05-20T05:41:49.801Z,25.98
2023-05-20T05:44:16.530Z,26.15
2023-05-20T05:46:43.347Z,24.65
2023-05-20T05:49:10.164Z,27.63
2023-05-20T05:51:38.982Z,25.73
2023-05-20T05:54:06.067Z,23.52
2023-05-20T05:56:32.875Z,22.77
2023-05-20T05:58:59.685Z,23.17
2023-05-20T06:01:26.584Z,24.92
2023-05-20T06:03:53.882Z,22.55
2023-05-20T06:06:20.822Z,24.25
2023-05-20T06:08:47.652Z,23.42
2023-05-20T06:11:14.419Z,24.40
2023-05-20T06:13:41.284Z,23.50
2023-05-20T06:16:08.174Z,22.30
2023-05-20T06:18:34.982Z,22.52
2023-05-20T06:21:03.395Z,25.02
2023-05-20T06:23:30.601Z,24.17
2023-05-20T06:26:00.973Z,19.83
2023-05-20T06:30:55.041Z,23.27
2023-05-20T06:33:26.098Z,23.02
2023-05-20T06:35:53.720Z,19.75
2023-05-20T06:38:20.790Z,25.35
2023-05-20T06:40:49.130Z,19.90
2023-05-20T06:43:16.866Z,22.38
2023-05-20T06:45:44.156Z,18.90
2023-05-20T06:48:11.271Z,21.73
2023-05-20T06:50:38.542Z,22.95
2023-05-20T06:53:05.355Z,20.65
2023-05-20T06:55:32.291Z,19.50
2023-05-20T06:57:59.193Z,21.45
2023-05-20T07:00:26.124Z,22.67
2023-05-20T07:02:52.942Z,16.88
2023-05-20T07:05:19.906Z,18.40
2023-05-20T07:07:46.694Z,16.17
2023-05-20T07:10:13.445Z,19.70
2023-05-20T07:12:40.273Z,20.00
2023-05-20T07:15:07.773Z,19.10
2023-05-20T07:17:34.559Z,17.95
2023-05-20T07:20:01.324Z,17.30
2023-05-20T07:22:28.093Z,22.33
2023-05-20T07:24:54.895Z,21.67
2023-05-20T07:27:21.666Z,21.77
2023-05-20T07:29:48.431Z,21.48
2023-05-20T07:32:15.588Z,20.75
2023-05-20T07:34:42.343Z,19.73
2023-05-20T07:37:10.111Z,22.92
2023-05-20T07:39:36.975Z,18.08
2023-05-20T07:42:04.020Z,20.45
2023-05-20T07:44:30.776Z,18.60
2023-05-20T07:46:57.549Z,19.42
2023-05-20T07:49:24.310Z,15.90
2023-05-20T07:51:51.155Z,16.48
2023-05-20T07:54:18.125Z,17.80
2023-05-20T07:56:44.961Z,16.80
2023-05-20T07:59:11.794Z,17.27
2023-05-20T08:01:40.826Z,15.85
2023-05-20T08:04:07.851Z,12.13
2023-05-20T08:06:35.395Z,14.25
2023-05-20T08:09:02.771Z,14.48
2023-05-20T08:11:29.524Z,15.27
2023-05-20T08:13:56.478Z,12.45
2023-05-20T08:16:23.339Z,13.40
2023-05-20T08:18:50.127Z,13.25
2023-05-20T08:21:17.181Z,11.05
2023-05-20T08:23:44.149Z,15.60
2023-05-20T08:26:10.974Z,15.68
2023-05-20T08:28:38.224Z,13.25
2023-05-20T08:31:05.146Z,12.05
2023-05-20T08:33:32.076Z,12.88
2023-05-20T08:35:59.198Z,12.63
2023-05-20T08:38:26.173Z,11.80
2023-05-20T08:40:57.295Z,12.10
2023-05-20T08:43:24.723Z,11.05
2023-05-20T08:45:55.004Z,10.15
2023-05-20T08:48:25.718Z,11.57
2023-05-20T08:50:53.757Z,9.80
2023-05-20T08:53:23.596Z,10.55
2023-05-20T08:56:01.345Z,11.05
2023-05-20T08:58:32.869Z,10.35
2023-05-20T09:01:00.932Z,11.07
2023-05-20T09:03:28.014Z,10.52
2023-05-20T09:06:03.389Z,10.05
2023-05-20T09:08:30.864Z,8.98
2023-05-20T09:10:57.681Z,9.25
2023-05-20T09:13:24.765Z,8.82
2023-05-20T09:15:51.669Z,8.90
2023-05-20T09:18:18.655Z,7.60
2023-05-20T09:20:48.083Z,7.38
2023-05-20T09:23:14.852Z,8.00
2023-05-20T09:25:41.608Z,9.65
2023-05-20T09:28:09.317Z,6.15
2023-05-20T09:30:36.631Z,7.47
2023-05-20T09:33:05.284Z,6.57
2023-05-20T09:35:37.469Z,7.20
2023-05-20T09:38:09.420Z,6.28
2023-05-20T09:40:40.396Z,6.05
2023-05-20T09:43:08.212Z,6.72
2023-05-20T09:45:35.304Z,5.18
2023-05-20T09:48:03.874Z,6.35
2023-05-20T09:50:32.126Z,8.80
2023-05-20T09:53:03.650Z,5.93
2023-05-20T09:55:31.107Z,5.47
2023-05-20T09:58:01.848Z,7.10
2023-05-20T10:00:28.953Z,6.28
2023-05-20T10:02:56.307Z,7.32
2023-05-20T10:05:39.751Z,5.82
2023-05-20T10:08:31.648Z,6.38
2023-05-20T10:11:23.078Z,4.50
2023-05-20T10:14:16.051Z,7.68
2023-05-20T10:17:08.750Z,5.93
2023-05-20T10:19:36.240Z,5.30
2023-05-20T10:22:09.204Z,5.05
2023-05-20T10:24:41.302Z,7.53
2023-05-20T10:27:14.231Z,4.57
2023-05-20T10:30:00.117Z,5.22
2023-05-20T10:32:27.716Z,5.10
2023-05-20T10:35:04.943Z,8.35
2023-05-20T10:37:43.472Z,5.40
2023-05-20T10:40:14.551Z,6.25
2023-05-20T10:42:42.745Z,5.78
2023-05-20T10:45:10.559Z,5.55
2023-05-20T10:47:42.425Z,4.50
2023-05-20T10:50:27.562Z,6.78
2023-05-20T10:52:54.721Z,5.07
2023-05-20T10:55:22.546Z,4.47
2023-05-20T10:57:49.331Z,3.60
2023-05-20T11:00:16.706Z,3.70
2023-05-20T11:02:44.604Z,4.65
2023-05-20T11:05:13.983Z,3.92
2023-05-20T11:07:40.826Z,5.97
2023-05-20T11:10:11.052Z,8.13
2023-05-20T11:15:05.164Z,4.18
2023-05-20T11:17:31.991Z,6.07
2023-05-20T11:20:00.952Z,3.90
2023-05-20T11:22:28.938Z,4.38
2023-05-20T11:24:55.797Z,3.67
2023-05-20T11:27:22.558Z,3.90
2023-05-20T11:29:50.921Z,4.00
2023-05-20T11:32:20.323Z,4.88
2023-05-20T11:34:52.477Z,4.07
2023-05-20T11:37:20.169Z,4.57
2023-05-20T11:39:47.132Z,3.95
2023-05-20T11:42:16.561Z,3.95
2023-05-20T11:44:45.275Z,4.20
2023-05-20T11:47:12.048Z,8.50
2023-05-20T11:49:42.080Z,6.22
2023-05-20T11:52:11.111Z,4.43
2023-05-20T11:54:38.010Z,7.63
2023-05-20T11:57:06.965Z,5.47
2023-05-20T11:59:34.551Z,4.78
2023-05-20T12:02:01.311Z,5.75
2023-05-20T12:04:28.116Z,4.45
2023-05-20T12:06:55.828Z,4.65
2023-05-20T12:09:22.715Z,3.30
2023-05-20T12:11:49.626Z,3.47
2023-05-20T12:14:16.460Z,5.45
2023-05-20T12:16:43.233Z,3.47
2023-05-20T12:19:10.068Z,4.68
2023-05-20T12:21:36.969Z,4.50
2023-05-20T12:24:06.775Z,5.15
2023-05-20T12:26:35.203Z,4.55
2023-05-20T12:29:01.954Z,5.63
2023-05-20T12:31:29.051Z,6.13
2023-05-20T12:33:56.393Z,3.80
2023-05-20T12:36:23.168Z,3.90
2023-05-20T12:38:49.925Z,4.75
2023-05-20T12:41:16.704Z,4.82
2023-05-20T12:43:43.443Z,7.10
2023-05-20T12:46:10.361Z,4.65
2023-05-20T12:48:37.300Z,6.07
2023-05-20T12:51:04.381Z,4.47
2023-05-20T12:53:31.209Z,4.15
2023-05-20T12:55:58.078Z,5.82
2023-05-20T12:58:24.793Z,4.85
2023-05-20T13:00:51.580Z,4.40
2023-05-20T13:03:18.598Z,6.13
2023-05-20T13:05:45.831Z,5.63
2023-05-20T13:08:14.664Z,6.68
2023-05-20T13:10:41.530Z,5.75
2023-05-20T13:13:08.281Z,6.10
2023-05-20T13:15:35.510Z,5.88
2023-05-20T13:18:03.521Z,7.35
2023-05-20T13:20:30.989Z,7.95
2023-05-20T13:22:58.049Z,9.13
2023-05-20T13:25:24.844Z,8.93
2023-05-20T13:27:51.715Z,6.63
2023-05-20T13:30:18.480Z,8.10
2023-05-20T13:32:46.223Z,8.93
2023-05-20T13:35:13.208Z,7.30
2023-05-20T13:37:40.019Z,7.72
2023-05-20T13:40:07.524Z,8.98
2023-05-20T13:42:34.511Z,9.40
2023-05-20T13:45:01.249Z,9.35
2023-05-20T13:47:28.175Z,12.15
2023-05-20T13:49:55.038Z,11.50
2023-05-20T13:52:21.786Z,8.27
2023-05-20T13:54:48.770Z,8.90
2023-05-20T13:57:16.010Z,11.40
2023-05-20T13:59:42.917Z,11.10
2023-05-20T14:02:09.824Z,8.05
2023-05-20T14:04:39.371Z,9.23
2023-05-20T14:07:09.075Z,12.15
2023-05-20T14:09:36.708Z,7.68
2023-05-20T14:12:03.874Z,10.35
2023-05-20T14:14:30.658Z,9.38
2023-05-20T14:16:57.647Z,10.98
2023-05-20T14:19:24.495Z,11.23
2023-05-20T14:21:51.699Z,8.35
2023-05-20T14:24:18.504Z,8.10
2023-05-20T14:26:45.291Z,10.57
2023-05-20T14:29:12.038Z,9.73
2023-05-20T14:31:39.387Z,8.27
2023-05-20T14:34:06.311Z,14.40
2023-05-20T14:36:33.104Z,12.35
2023-05-20T14:38:59.874Z,9.00
2023-05-20T14:41:26.621Z,16.08
2023-05-20T14:43:53.443Z,9.80
2023-05-20T14:46:20.495Z,10.85
2023-05-20T14:48:47.472Z,11.13
2023-05-20T14:51:14.271Z,10.20
2023-05-20T14:53:41.080Z,8.38
2023-05-20T14:56:07.964Z,9.90
2023-05-20T14:58:35.777Z,12.40
2023-05-20T15:01:02.623Z,9.80
2023-05-20T15:03:29.766Z,10.98
2023-05-20T15:05:56.729Z,10.80
2023-05-20T15:08:23.502Z,12.45
2023-05-20T15:10:51.061Z,13.52
2023-05-20T15:13:17.869Z,8.88
2023-05-20T15:15:45.001Z,11.77
2023-05-20T15:18:11.842Z,13.57
2023-05-20T15:20:38.733Z,10.20
2023-05-20T15:23:06.091Z,11.20
2023-05-20T15:25:33.001Z,13.15
2023-05-20T15:27:59.875Z,11.57
2023-05-20T15:30:26.626Z,13.00
2023-05-20T15:32:53.589Z,8.35
2023-05-20T15:35:20.775Z,13.50
2023-05-20T15:37:47.520Z,12.77
2023-05-20T15:40:15.811Z,10.63
2023-05-20T15:42:43.027Z,11.77
2023-05-20T15:45:10.258Z,12.15
2023-05-20T15:47:39.913Z,11.20
2023-05-20T15:50:08.604Z,13.93
2023-05-20T15:52:35.734Z,10.75
2023-05-20T15:55:02.819Z,11.07
2023-05-20T15:57:30.731Z,12.48
2023-05-20T15:59:57.746Z,9.85
2023-05-20T16:02:25.056Z,10.13
2023-05-20T16:04:52.449Z,11.40
2023-05-20T16:07:19.325Z,12.27
2023-05-20T16:09:46.246Z,12.00
2023-05-20T16:12:13.065Z,11.10
2023-05-20T16:14:39.814Z,9.63
2023-05-20T16:17:06.589Z,10.32
2023-05-20T16:19:33.512Z,12.18
2023-05-20T16:22:00.459Z,11.88
2023-05-20T16:24:27.261Z,9.82
2023-05-20T16:26:54.167Z,11.50
2023-05-20T16:29:21.398Z,11.05
2023-05-20T16:31:48.218Z,11.60
2023-05-20T16:34:16.416Z,11.38
2023-05-20T16:36:45.240Z,13.15
2023-05-20T16:39:12.847Z,12.27
2023-05-20T16:41:39.652Z,9.50
2023-05-20T16:44:06.677Z,11.43
2023-05-20T16:46:33.689Z,11.90
2023-05-20T16:49:00.654Z,10.48
2023-05-20T16:51:27.785Z,12.07
2023-05-20T16:53:54.553Z,13.20
2023-05-20T16:56:22.260Z,19.50
2023-05-20T16:58:51.970Z,10.60
2023-05-20T17:01:20.070Z,11.32
2023-05-20T17:03:46.946Z,12.13
2023-05-20T17:06:13.746Z,10.65
2023-05-20T17:08:40.577Z,12.32
2023-05-20T17:11:07.344Z,11.93
2023-05-20T17:13:34.135Z,11.90
2023-05-20T17:16:01.059Z,11.95
2023-05-20T17:18:27.821Z,10.55
2023-05-20T17:20:54.570Z,11.07
2023-05-20T17:23:21.423Z,11.45
2023-05-20T17:25:48.189Z,10.90
2023-05-20T17:28:14.983Z,9.13
2023-05-20T17:30:41.781Z,19.40
2023-05-20T17:33:08.620Z,10.43
2023-05-20T17:35:36.599Z,9.88
2023-05-20T17:38:03.422Z,11.40
2023-05-20T17:40:30.220Z,11.63
2023-05-20T17:42:57.014Z,9.48
2023-05-20T17:45:23.866Z,13.27
2023-05-20T17:47:51.320Z,11.02
2023-05-20T17:50:18.154Z,12.00
2023-05-20T17:52:44.884Z,13.80
2023-05-20T17:55:12.897Z,16.15
2023-05-20T17:57:39.697Z,11.43
2023-05-20T18:00:10.186Z,10.70
2023-05-20T18:02:38.335Z,10.65
2023-05-20T18:05:06.436Z,11.55
2023-05-20T18:07:34.471Z,10.77
2023-05-20T18:10:01.581Z,13.27
2023-05-20T18:12:28.415Z,11.77
2023-05-20T18:14:55.444Z,11.45
2023-05-20T18:17:22.238Z,15.77
2023-05-20T18:19:49.271Z,12.75
2023-05-20T18:22:16.043Z,11.55
2023-05-20T18:24:42.813Z,10.55
2023-05-20T18:27:09.586Z,13.70
2023-05-20T18:29:36.333Z,10.98
2023-05-20T18:32:03.323Z,12.98
2023-05-20T18:34:30.304Z,12.00
2023-05-20T18:36:57.076Z,12.18
2023-05-20T18:39:23.822Z,13.48
2023-05-20T18:41:50.682Z,15.32
2023-05-20T18:44:19.082Z,11.77
2023-05-20T18:46:46.178Z,13.18
2023-05-20T18:49:13.143Z,10.88
2023-05-20T18:51:40.802Z,10.02
2023-05-20T18:54:07.941Z,10.77
2023-05-20T18:56:34.811Z,9.52
2023-05-20T18:59:01.678Z,9.85
2023-05-20T19:01:28.601Z,11.85
2023-05-20T19:03:55.716Z,15.40
2023-05-20T19:06:22.693Z,11.65
2023-05-20T19:08:49.619Z,12.15
2023-05-20T19:11:16.632Z,14.07
2023-05-20T19:13:43.423Z,15.13
2023-05-20T19:16:10.577Z,12.52
2023-05-20T19:18:37.405Z,9.75
2023-05-20T19:21:04.385Z,11.77
2023-05-20T19:23:32.370Z,12.00
2023-05-20T19:25:59.338Z,11.68
2023-05-20T19:28:26.296Z,12.75
2023-05-20T19:30:53.352Z,14.10
2023-05-20T19:33:20.965Z,15.30
2023-05-20T19:35:47.858Z,10.35
2023-05-20T19:38:14.930Z,11.55
2023-05-20T19:40:42.681Z,11.63
2023-05-20T19:43:09.464Z,12.55
2023-05-20T19:45:36.794Z,11.50
2023-05-20T19:48:04.417Z,13.50
2023-05-20T19:50:31.659Z,15.30
2023-05-20T19:52:58.771Z,13.32
2023-05-20T19:55:25.954Z,12.85
2023-05-20T19:57:53.545Z,12.73
2023-05-20T20:00:21.329Z,12.27
2023-05-20T20:02:48.841Z,14.07
2023-05-20T20:05:16.001Z,12.35
2023-05-20T20:07:42.838Z,13.23
2023-05-20T20:10:10.486Z,12.77
2023-05-20T20:12:37.283Z,13.43
2023-05-20T20:15:04.862Z,16.15
2023-05-20T20:17:33.720Z,13.65
2023-05-20T20:20:00.901Z,10.38
2023-05-20T20:22:27.893Z,13.32
2023-05-20T20:24:54.714Z,11.52
2023-05-20T20:27:23.656Z,16.15
2023-05-20T20:29:50.672Z,16.33
2023-05-20T20:32:17.513Z,13.70
2023-05-20T20:34:45.888Z,16.17
2023-05-20T20:37:14.975Z,11.95
2023-05-20T20:39:42.160Z,14.13
2023-05-20T20:42:08.907Z,12.52
2023-05-20T20:44:35.672Z,14.65
2023-05-20T20:47:04.373Z,13.23
2023-05-20T20:49:32.216Z,12.90
2023-05-20T20:51:59.271Z,15.02
2023-05-20T20:54:26.398Z,13.88
2023-05-20T20:56:56.694Z,13.68
2023-05-20T21:01:53.981Z,13.97
2023-05-20T21:04:21.518Z,12.85
2023-05-20T21:06:48.439Z,14.55
2023-05-20T21:09:15.869Z,14.68
2023-05-20T21:11:43.260Z,11.77
2023-05-20T21:14:10.470Z,13.50
2023-05-20T21:16:37.762Z,12.82
2023-05-20T21:19:04.844Z,12.85
2023-05-20T21:21:31.978Z,14.65
2023-05-20T21:23:58.841Z,13.23
2023-05-20T21:26:25.821Z,17.38
2023-05-20T21:28:53.005Z,13.50
2023-05-20T21:31:20.131Z,13.77
2023-05-20T21:33:46.994Z,15.52
2023-05-20T21:36:13.788Z,15.40
2023-05-20T21:38:40.581Z,14.15
2023-05-20T21:41:07.660Z,12.73
2023-05-20T21:43:35.916Z,17.92
2023-05-20T21:46:03.002Z,14.45
2023-05-20T21:48:29.794Z,13.23
2023-05-20T21:50:56.649Z,12.95
2023-05-20T21:53:23.441Z,12.43
2023-05-20T21:55:50.553Z,14.30
2023-05-20T21:58:17.374Z,13.18
2023-05-20T22:00:45.081Z,14.18
2023-05-20T22:03:13.005Z,13.63
2023-05-20T22:05:40.933Z,12.68
2023-05-20T22:08:07.858Z,12.50
2023-05-20T22:10:36.479Z,10.65
2023-05-20T22:13:03.353Z,13.32
2023-05-20T22:15:30.553Z,11.65
2023-05-20T22:17:57.551Z,12.63
2023-05-20T22:20:25.227Z,16.33
2023-05-20T22:22:52.046Z,12.82
2023-05-20T22:25:18.790Z,11.57
2023-05-20T22:27:45.727Z,14.77
2023-05-20T22:30:13.262Z,13.55
2023-05-20T22:32:40.805Z,13.73
2023-05-20T22:35:08.284Z,15.15
2023-05-20T22:37:35.408Z,14.35
2023-05-20T22:40:02.158Z,13.63
2023-05-20T22:42:29.023Z,15.20
2023-05-20T22:44:55.817Z,14.90
2023-05-20T22:47:22.709Z,15.43
2023-05-20T22:49:49.516Z,12.18
2023-05-20T22:52:16.292Z,13.98
2023-05-20T22:54:43.060Z,11.93
2023-05-20T22:57:09.788Z,11.75
2023-05-20T22:59:36.608Z,15.27
2023-05-20T23:02:04.414Z,16.33
2023-05-20T23:04:31.253Z,11.50
2023-05-20T23:06:59.522Z,12.27
2023-05-20T23:09:26.495Z,12.65
2023-05-20T23:11:53.348Z,14.23
2023-05-20T23:14:20.404Z,15.13
2023-05-20T23:16:47.349Z,17.15
2023-05-20T23:19:14.572Z,19.05
2023-05-20T23:21:41.439Z,13.55
2023-05-20T23:24:08.503Z,12.65
2023-05-20T23:26:37.764Z,14.55
2023-05-20T23:29:05.278Z,13.65
2023-05-20T23:31:32.943Z,11.82
2023-05-20T23:34:01.060Z,10.98
2023-05-20T23:36:29.157Z,11.80
2023-05-20T23:38:56.531Z,11.23
2023-05-20T23:41:23.663Z,13.85
2023-05-20T23:43:50.760Z,15.95
2023-05-20T23:46:18.583Z,14.00
2023-05-20T23:48:48.330Z,15.85
2023-05-20T23:51:16.371Z,14.10
2023-05-20T23:53:45.047Z,13.30
2023-05-20T23:56:11.892Z,15.07
2023-05-20T23:58:38.733Z,12.48
